sensor_id;sensor_type;location;lat;lon;timestamp;P1;durP1;ratioP1;P2;durP2;ratioP2
33206;SDS011;19565;46.602;11.534;2022-12-18T00:00:05;17.20;;;16.40;;
33206;SDS011;19565;46.602;11.534;2022-12-18T00:02:35;16.97;;;16.17;;
33206;SDS011;19565;46.602;11.534;2022-12-18T00:05:04;16.33;;;15.53;;
33206;SDS011;19565;46.602;11.534;2022-12-18T00:07:33;15.87;;;15.07;;
33206;SDS011;19565;46.602;11.534;2022-12-18T00:10:01;18.17;;;17.33;;
33206;SDS011;19565;46.602;11.534;2022-12-18T00:12:31;15.90;;;15.10;;
33206;SDS011;19565;46.602;11.534;2022-12-18T00:14:59;15.10;;;14.40;;
33206;SDS011;19565;46.602;11.534;2022-12-18T00:17:27;14.77;;;13.97;;
33206;SDS011;19565;46.602;11.534;2022-12-18T00:19:57;2.70;;;2.60;;
33206;SDS011;19565;46.602;11.534;2022-12-18T00:22:25;3.20;;;3.00;;
33206;SDS011;19565;46.602;11.534;2022-12-18T00:24:55;3.00;;;2.90;;
33206;SDS011;19565;46.602;11.534;2022-12-18T00:27:23;2.90;;;2.80;;
33206;SDS011;19565;46.602;11.534;2022-12-18T00:29:51;2.70;;;2.60;;
33206;SDS011;19565;46.602;11.534;2022-12-18T00:32:19;3.17;;;2.97;;
33206;SDS011;19565;46.602;11.534;2022-12-18T00:34:47;3.43;;;3.13;;
33206;SDS011;19565;46.602;11.534;2022-12-18T00:37:16;2.60;;;2.50;;
33206;SDS011;19565;46.602;11.534;2022-12-18T00:39:47;2.57;;;2.47;;
33206;SDS011;19565;46.602;11.534;2022-12-18T00:42:15;2.40;;;2.30;;
33206;SDS011;19565;46.602;11.534;2022-12-18T00:45:01;2.40;;;2.30;;
33206;SDS011;19565;46.602;11.534;2022-12-18T00:47:37;2.63;;;2.53;;
33206;SDS011;19565;46.602;11.534;2022-12-18T00:50:05;2.80;;;2.70;;
33206;SDS011;19565;46.602;11.534;2022-12-18T00:52:36;2.80;;;2.70;;
33206;SDS011;19565;46.602;11.534;2022-12-18T00:55:04;3.73;;;3.53;;
33206;SDS011;19565;46.602;11.534;2022-12-18T00:57:33;3.00;;;2.90;;
33206;SDS011;19565;46.602;11.534;2022-12-18T01:00:02;3.60;;;3.40;;
33206;SDS011;19565;46.602;11.534;2022-12-18T01:02:31;3.30;;;3.10;;
33206;SDS011;19565;46.602;11.534;2022-12-18T01:04:59;3.30;;;3.10;;
33206;SDS011;19565;46.602;11.534;2022-12-18T01:07:27;3.47;;;3.27;;
33206;SDS011;19565;46.602;11.534;2022-12-18T01:09:56;4.00;;;3.80;;
33206;SDS011;19565;46.602;11.534;2022-12-18T01:12:24;3.73;;;3.53;;
33206;SDS011;19565;46.602;11.534;2022-12-18T01:14:52;15.10;;;14.37;;
33206;SDS011;19565;46.602;11.534;2022-12-18T01:17:21;15.20;;;14.50;;
33206;SDS011;19565;46.602;11.534;2022-12-18T01:19:49;15.40;;;14.60;;
33206;SDS011;19565;46.602;11.534;2022-12-18T01:22:17;16.50;;;15.70;;
33206;SDS011;19565;46.602;11.534;2022-12-18T01:24:45;15.97;;;15.17;;
33206;SDS011;19565;46.602;11.534;2022-12-18T01:27:15;17.13;;;16.33;;
33206;SDS011;19565;46.602;11.534;2022-12-18T01:29:43;16.93;;;16.13;;
33206;SDS011;19565;46.602;11.534;2022-12-18T01:32:11;18.67;;;17.77;;
33206;SDS011;19565;46.602;11.534;2022-12-18T01:34:39;18.80;;;17.90;;
33206;SDS011;19565;46.602;11.534;2022-12-18T01:37:07;18.33;;;17.50;;
33206;SDS011;19565;46.602;11.534;2022-12-18T01:39:35;19.30;;;18.40;;
33206;SDS011;19565;46.602;11.534;2022-12-18T01:42:05;21.30;;;20.30;;
33206;SDS011;19565;46.602;11.534;2022-12-18T01:44:55;21.17;;;20.17;;
33206;SDS011;19565;46.602;11.534;2022-12-18T01:47:27;21.47;;;20.47;;
33206;SDS011;19565;46.602;11.534;2022-12-18T01:49:59;22.87;;;21.87;;
33206;SDS011;19565;46.602;11.534;2022-12-18T01:52:30;23.30;;;22.23;;
33206;SDS011;19565;46.602;11.534;2022-12-18T01:55:00;5.70;;;5.40;;
33206;SDS011;19565;46.602;11.534;2022-12-18T01:57:30;8.37;;;7.70;;
33206;SDS011;19565;46.602;11.534;2022-12-18T02:00:01;7.00;;;6.50;;
33206;SDS011;19565;46.602;11.534;2022-12-18T02:02:31;6.57;;;6.17;;
33206;SDS011;19565;46.602;11.534;2022-12-18T02:05:00;6.47;;;6.07;;
33206;SDS011;19565;46.602;11.534;2022-12-18T02:07:32;6.07;;;5.70;;
33206;SDS011;19565;46.602;11.534;2022-12-18T02:10:10;5.90;;;5.60;;
33206;SDS011;19565;46.602;11.534;2022-12-18T02:12:43;6.07;;;5.67;;
33206;SDS011;19565;46.602;11.534;2022-12-18T02:15:18;6.80;;;6.40;;
33206;SDS011;19565;46.602;11.534;2022-12-18T02:17:52;6.40;;;6.00;;
33206;SDS011;19565;46.602;11.534;2022-12-18T02:20:24;7.53;;;7.13;;
33206;SDS011;19565;46.602;11.534;2022-12-18T02:23:01;7.53;;;7.03;;
33206;SDS011;19565;46.602;11.534;2022-12-18T02:25:40;7.00;;;6.60;;
33206;SDS011;19565;46.602;11.534;2022-12-18T02:28:22;7.70;;;7.20;;
33206;SDS011;19565;46.602;11.534;2022-12-18T02:30:54;7.90;;;7.40;;
33206;SDS011;19565;46.602;11.534;2022-12-18T02:33:27;7.67;;;7.17;;
33206;SDS011;19565;46.602;11.534;2022-12-18T02:35:56;8.37;;;7.87;;
33206;SDS011;19565;46.602;11.534;2022-12-18T02:38:26;7.73;;;7.23;;
33206;SDS011;19565;46.602;11.534;2022-12-18T02:40:58;26.00;;;24.87;;
33206;SDS011;19565;46.602;11.534;2022-12-18T02:43:27;26.47;;;25.27;;
33206;SDS011;19565;46.602;11.534;2022-12-18T02:45:58;27.90;;;26.70;;
33206;SDS011;19565;46.602;11.534;2022-12-18T02:48:30;27.87;;;26.67;;
33206;SDS011;19565;46.602;11.534;2022-12-18T02:51:03;27.47;;;26.17;;
33206;SDS011;19565;46.602;11.534;2022-12-18T02:53:39;26.70;;;25.50;;
33206;SDS011;19565;46.602;11.534;2022-12-18T02:56:15;25.57;;;24.47;;
33206;SDS011;19565;46.602;11.534;2022-12-18T02:58:50;26.00;;;24.90;;
33206;SDS011;19565;46.602;11.534;2022-12-18T03:01:28;26.63;;;25.43;;
33206;SDS011;19565;46.602;11.534;2022-12-18T03:04:01;26.07;;;24.93;;
33206;SDS011;19565;46.602;11.534;2022-12-18T03:06:35;26.53;;;25.33;;
33206;SDS011;19565;46.602;11.534;2022-12-18T03:09:07;7.63;;;7.13;;
33206;SDS011;19565;46.602;11.534;2022-12-18T03:11:42;26.73;;;25.53;;
33206;SDS011;19565;46.602;11.534;2022-12-18T03:14:33;26.70;;;25.50;;
33206;SDS011;19565;46.602;11.534;2022-12-18T03:17:04;28.33;;;27.07;;
33206;SDS011;19565;46.602;11.534;2022-12-18T03:19:36;28.33;;;27.03;;
33206;SDS011;19565;46.602;11.534;2022-12-18T03:22:06;26.60;;;25.40;;
33206;SDS011;19565;46.602;11.534;2022-12-18T03:24:35;27.10;;;25.80;;
33206;SDS011;19565;46.602;11.534;2022-12-18T03:27:08;25.43;;;24.33;;
33206;SDS011;19565;46.602;11.534;2022-12-18T03:29:40;26.60;;;25.40;;
33206;SDS011;19565;46.602;11.534;2022-12-18T03:32:12;26.30;;;25.10;;
33206;SDS011;19565;46.602;11.534;2022-12-18T03:34:46;25.53;;;24.43;;
33206;SDS011;19565;46.602;11.534;2022-12-18T03:37:18;24.93;;;23.83;;
33206;SDS011;19565;46.602;11.534;2022-12-18T03:39:46;23.50;;;22.40;;
33206;SDS011;19565;46.602;11.534;2022-12-18T03:42:16;22.07;;;21.07;;
33206;SDS011;19565;46.602;11.534;2022-12-18T03:44:53;21.53;;;20.53;;
33206;SDS011;19565;46.602;11.534;2022-12-18T03:47:30;21.27;;;20.27;;
33206;SDS011;19565;46.602;11.534;2022-12-18T03:50:05;19.33;;;18.43;;
33206;SDS011;19565;46.602;11.534;2022-12-18T03:52:40;19.00;;;18.10;;
33206;SDS011;19565;46.602;11.534;2022-12-18T03:55:15;18.60;;;17.70;;
33206;SDS011;19565;46.602;11.534;2022-12-18T03:57:47;18.17;;;17.27;;
33206;SDS011;19565;46.602;11.534;2022-12-18T04:00:17;17.20;;;16.40;;
33206;SDS011;19565;46.602;11.534;2022-12-18T04:02:47;16.70;;;15.90;;
33206;SDS011;19565;46.602;11.534;2022-12-18T04:05:18;16.97;;;16.17;;
33206;SDS011;19565;46.602;11.534;2022-12-18T04:07:47;17.37;;;16.57;;
33206;SDS011;19565;46.602;11.534;2022-12-18T04:10:18;16.13;;;15.33;;
33206;SDS011;19565;46.602;11.534;2022-12-18T04:12:47;16.30;;;15.50;;
33206;SDS011;19565;46.602;11.534;2022-12-18T04:15:15;18.57;;;17.57;;
33206;SDS011;19565;46.602;11.534;2022-12-18T04:17:47;21.07;;;19.90;;
33206;SDS011;19565;46.602;11.534;2022-12-18T04:20:16;17.43;;;16.63;;
33206;SDS011;19565;46.602;11.534;2022-12-18T04:22:45;18.00;;;17.10;;
33206;SDS011;19565;46.602;11.534;2022-12-18T04:25:13;18.80;;;17.90;;
33206;SDS011;19565;46.602;11.534;2022-12-18T04:27:41;19.20;;;18.30;;
33206;SDS011;19565;46.602;11.534;2022-12-18T04:30:11;18.10;;;17.27;;
33206;SDS011;19565;46.602;11.534;2022-12-18T04:32:39;18.23;;;17.37;;
33206;SDS011;19565;46.602;11.534;2022-12-18T04:35:12;19.70;;;18.80;;
33206;SDS011;19565;46.602;11.534;2022-12-18T04:37:41;19.63;;;18.73;;
33206;SDS011;19565;46.602;11.534;2022-12-18T04:40:09;21.77;;;20.77;;
33206;SDS011;19565;46.602;11.534;2022-12-18T04:42:38;21.90;;;20.90;;
33206;SDS011;19565;46.602;11.534;2022-12-18T04:45:07;22.07;;;21.07;;
33206;SDS011;19565;46.602;11.534;2022-12-18T04:47:37;23.60;;;22.50;;
33206;SDS011;19565;46.602;11.534;2022-12-18T04:50:05;23.77;;;22.67;;
33206;SDS011;19565;46.602;11.534;2022-12-18T04:52:34;23.40;;;22.30;;
33206;SDS011;19565;46.602;11.534;2022-12-18T04:55:02;23.17;;;22.17;;
33206;SDS011;19565;46.602;11.534;2022-12-18T04:57:30;22.63;;;21.63;;
33206;SDS011;19565;46.602;11.534;2022-12-18T04:59:58;23.27;;;22.27;;
33206;SDS011;19565;46.602;11.534;2022-12-18T05:02:26;23.37;;;22.37;;
33206;SDS011;19565;46.602;11.534;2022-12-18T05:04:56;23.93;;;22.83;;
33206;SDS011;19565;46.602;11.534;2022-12-18T05:07:24;24.43;;;23.33;;
33206;SDS011;19565;46.602;11.534;2022-12-18T05:09:52;25.10;;;24.00;;
33206;SDS011;19565;46.602;11.534;2022-12-18T05:12:20;22.80;;;21.80;;
33206;SDS011;19565;46.602;11.534;2022-12-18T05:14:48;20.50;;;19.60;;
33206;SDS011;19565;46.602;11.534;2022-12-18T05:17:16;19.20;;;18.30;;
33206;SDS011;19565;46.602;11.534;2022-12-18T05:19:44;17.87;;;16.93;;
33206;SDS011;19565;46.602;11.534;2022-12-18T05:22:13;17.20;;;16.40;;
33206;SDS011;19565;46.602;11.534;2022-12-18T05:24:42;17.63;;;16.73;;
33206;SDS011;19565;46.602;11.534;2022-12-18T05:27:10;16.93;;;16.13;;
33206;SDS011;19565;46.602;11.534;2022-12-18T05:29:38;15.97;;;15.17;;
33206;SDS011;19565;46.602;11.534;2022-12-18T05:32:06;16.80;;;16.00;;
33206;SDS011;19565;46.602;11.534;2022-12-18T05:34:34;15.90;;;15.10;;
33206;SDS011;19565;46.602;11.534;2022-12-18T05:37:02;17.67;;;16.87;;
33206;SDS011;19565;46.602;11.534;2022-12-18T05:39:31;17.57;;;16.77;;
33206;SDS011;19565;46.602;11.534;2022-12-18T05:41:59;17.77;;;16.93;;
33206;SDS011;19565;46.602;11.534;2022-12-18T05:44:27;18.17;;;17.37;;
33206;SDS011;19565;46.602;11.534;2022-12-18T05:46:55;19.37;;;18.47;;
33206;SDS011;19565;46.602;11.534;2022-12-18T05:49:23;19.87;;;18.97;;
33206;SDS011;19565;46.602;11.534;2022-12-18T05:51:51;20.73;;;19.80;;
33206;SDS011;19565;46.602;11.534;2022-12-18T05:54:19;19.80;;;18.90;;
33206;SDS011;19565;46.602;11.534;2022-12-18T05:56:49;19.67;;;18.77;;
33206;SDS011;19565;46.602;11.534;2022-12-18T05:59:17;20.07;;;19.17;;
33206;SDS011;19565;46.602;11.534;2022-12-18T06:01:45;19.57;;;18.67;;
33206;SDS011;19565;46.602;11.534;2022-12-18T06:04:13;21.63;;;20.30;;
33206;SDS011;19565;46.602;11.534;2022-12-18T06:06:42;20.67;;;19.77;;
33206;SDS011;19565;46.602;11.534;2022-12-18T06:09:10;20.13;;;19.23;;
33206;SDS011;19565;46.602;11.534;2022-12-18T06:11:38;20.67;;;19.77;;
33206;SDS011;19565;46.602;11.534;2022-12-18T06:14:08;21.57;;;20.57;;
33206;SDS011;19565;46.602;11.534;2022-12-18T06:16:37;5.87;;;5.57;;
33206;SDS011;19565;46.602;11.534;2022-12-18T06:19:05;6.27;;;5.87;;
33206;SDS011;19565;46.602;11.534;2022-12-18T06:21:33;6.70;;;6.30;;
33206;SDS011;19565;46.602;11.534;2022-12-18T06:24:01;8.10;;;7.60;;
33206;SDS011;19565;46.602;11.534;2022-12-18T06:26:29;7.83;;;7.33;;
33206;SDS011;19565;46.602;11.534;2022-12-18T06:28:57;7.50;;;7.10;;
33206;SDS011;19565;46.602;11.534;2022-12-18T06:31:26;7.70;;;7.00;;
33206;SDS011;19565;46.602;11.534;2022-12-18T06:33:56;7.33;;;6.90;;
33206;SDS011;19565;46.602;11.534;2022-12-18T06:36:24;6.20;;;5.80;;
33206;SDS011;19565;46.602;11.534;2022-12-18T06:38:52;6.07;;;5.70;;
33206;SDS011;19565;46.602;11.534;2022-12-18T06:41:20;5.50;;;5.20;;
33206;SDS011;19565;46.602;11.534;2022-12-18T06:43:48;5.27;;;4.97;;
33206;SDS011;19565;46.602;11.534;2022-12-18T06:46:22;4.30;;;4.10;;
33206;SDS011;19565;46.602;11.534;2022-12-18T06:48:51;4.63;;;4.33;;
33206;SDS011;19565;46.602;11.534;2022-12-18T06:51:19;16.77;;;15.97;;
33206;SDS011;19565;46.602;11.534;2022-12-18T06:53:49;17.13;;;16.33;;
33206;SDS011;19565;46.602;11.534;2022-12-18T06:56:17;18.50;;;17.60;;
33206;SDS011;19565;46.602;11.534;2022-12-18T06:58:45;18.23;;;17.33;;
33206;SDS011;19565;46.602;11.534;2022-12-18T07:01:13;18.60;;;17.70;;
33206;SDS011;19565;46.602;11.534;2022-12-18T07:03:41;18.33;;;17.43;;
33206;SDS011;19565;46.602;11.534;2022-12-18T07:06:17;18.93;;;18.03;;
33206;SDS011;19565;46.602;11.534;2022-12-18T07:08:46;19.50;;;18.47;;
33206;SDS011;19565;46.602;11.534;2022-12-18T07:11:14;20.13;;;19.23;;
33206;SDS011;19565;46.602;11.534;2022-12-18T07:13:44;20.27;;;19.37;;
33206;SDS011;19565;46.602;11.534;2022-12-18T07:16:13;18.77;;;17.87;;
33206;SDS011;19565;46.602;11.534;2022-12-18T07:18:50;19.07;;;18.17;;
33206;SDS011;19565;46.602;11.534;2022-12-18T07:21:20;18.17;;;17.27;;
33206;SDS011;19565;46.602;11.534;2022-12-18T07:23:48;17.73;;;16.93;;
33206;SDS011;19565;46.602;11.534;2022-12-18T07:26:17;18.50;;;17.60;;
33206;SDS011;19565;46.602;11.534;2022-12-18T07:28:49;17.63;;;16.83;;
33206;SDS011;19565;46.602;11.534;2022-12-18T07:31:18;30.43;;;18.43;;
33206;SDS011;19565;46.602;11.534;2022-12-18T07:33:48;19.10;;;18.20;;
33206;SDS011;19565;46.602;11.534;2022-12-18T07:36:17;18.70;;;17.77;;
33206;SDS011;19565;46.602;11.534;2022-12-18T07:38:54;16.80;;;16.00;;
33206;SDS011;19565;46.602;11.534;2022-12-18T07:41:22;16.20;;;15.40;;
33206;SDS011;19565;46.602;11.534;2022-12-18T07:43:50;19.83;;;18.83;;
33206;SDS011;19565;46.602;11.534;2022-12-18T07:46:18;17.00;;;16.20;;
33206;SDS011;19565;46.602;11.534;2022-12-18T07:48:46;16.30;;;15.50;;
33206;SDS011;19565;46.602;11.534;2022-12-18T07:51:15;16.40;;;15.60;;
33206;SDS011;19565;46.602;11.534;2022-12-18T07:53:46;16.40;;;15.60;;
33206;SDS011;19565;46.602;11.534;2022-12-18T07:56:18;15.50;;;14.70;;
33206;SDS011;19565;46.602;11.534;2022-12-18T07:58:56;14.50;;;13.80;;
33206;SDS011;19565;46.602;11.534;2022-12-18T08:01:25;14.40;;;13.70;;
33206;SDS011;19565;46.602;11.534;2022-12-18T08:03:53;13.63;;;12.93;;
33206;SDS011;19565;46.602;11.534;2022-12-18T08:06:21;12.43;;;11.83;;
33206;SDS011;19565;46.602;11.534;2022-12-18T08:08:52;11.10;;;10.50;;
33206;SDS011;19565;46.602;11.534;2022-12-18T08:11:21;13.50;;;12.77;;
33206;SDS011;19565;46.602;11.534;2022-12-18T08:13:50;11.23;;;10.63;;
33206;SDS011;19565;46.602;11.534;2022-12-18T08:16:19;12.00;;;11.10;;
33206;SDS011;19565;46.602;11.534;2022-12-18T08:18:48;12.20;;;11.60;;
33206;SDS011;19565;46.602;11.534;2022-12-18T08:21:16;12.07;;;11.47;;
33206;SDS011;19565;46.602;11.534;2022-12-18T08:23:47;13.77;;;12.97;;
33206;SDS011;19565;46.602;11.534;2022-12-18T08:26:18;4.07;;;3.77;;
33206;SDS011;19565;46.602;11.534;2022-12-18T08:28:47;3.00;;;2.90;;
33206;SDS011;19565;46.602;11.534;2022-12-18T08:31:16;3.10;;;2.90;;
33206;SDS011;19565;46.602;11.534;2022-12-18T08:33:44;3.20;;;3.00;;
33206;SDS011;19565;46.602;11.534;2022-12-18T08:36:12;4.63;;;4.23;;
33206;SDS011;19565;46.602;11.534;2022-12-18T08:38:40;3.93;;;3.73;;
33206;SDS011;19565;46.602;11.534;2022-12-18T08:41:09;4.40;;;4.10;;
33206;SDS011;19565;46.602;11.534;2022-12-18T08:43:40;4.10;;;3.90;;
33206;SDS011;19565;46.602;11.534;2022-12-18T08:46:26;3.60;;;3.40;;
33206;SDS011;19565;46.602;11.534;2022-12-18T08:49:03;4.10;;;3.90;;
33206;SDS011;19565;46.602;11.534;2022-12-18T08:51:32;5.20;;;4.90;;
33206;SDS011;19565;46.602;11.534;2022-12-18T08:54:00;5.97;;;5.57;;
33206;SDS011;19565;46.602;11.534;2022-12-18T08:56:31;5.20;;;4.90;;
33206;SDS011;19565;46.602;11.534;2022-12-18T08:59:01;6.33;;;5.93;;
33206;SDS011;19565;46.602;11.534;2022-12-18T09:01:30;22.33;;;21.33;;
33206;SDS011;19565;46.602;11.534;2022-12-18T09:04:00;24.43;;;23.33;;
33206;SDS011;19565;46.602;11.534;2022-12-18T09:06:29;24.90;;;23.80;;
33206;SDS011;19565;46.602;11.534;2022-12-18T09:08:58;26.63;;;25.40;;
33206;SDS011;19565;46.602;11.534;2022-12-18T09:11:27;30.90;;;29.53;;
33206;SDS011;19565;46.602;11.534;2022-12-18T09:13:55;29.07;;;27.77;;
33206;SDS011;19565;46.602;11.534;2022-12-18T09:16:26;28.23;;;27.03;;
33206;SDS011;19565;46.602;11.534;2022-12-18T09:18:58;29.00;;;27.70;;
33206;SDS011;19565;46.602;11.534;2022-12-18T09:21:27;31.53;;;30.13;;
33206;SDS011;19565;46.602;11.534;2022-12-18T09:23:58;30.67;;;29.37;;
33206;SDS011;19565;46.602;11.534;2022-12-18T09:26:26;31.13;;;29.77;;
33206;SDS011;19565;46.602;11.534;2022-12-18T09:28:55;33.10;;;31.70;;
33206;SDS011;19565;46.602;11.534;2022-12-18T09:31:23;33.03;;;31.47;;
33206;SDS011;19565;46.602;11.534;2022-12-18T09:33:55;12.17;;;11.37;;
33206;SDS011;19565;46.602;11.534;2022-12-18T09:36:23;11.80;;;11.20;;
33206;SDS011;19565;46.602;11.534;2022-12-18T09:38:51;12.67;;;11.97;;
33206;SDS011;19565;46.602;11.534;2022-12-18T09:41:27;20.60;;;19.60;;
33206;SDS011;19565;46.602;11.534;2022-12-18T09:44:17;33.80;;;32.07;;
33206;SDS011;19565;46.602;11.534;2022-12-18T09:46:53;33.90;;;32.40;;
33206;SDS011;19565;46.602;11.534;2022-12-18T09:49:29;35.57;;;33.97;;
33206;SDS011;19565;46.602;11.534;2022-12-18T09:52:02;33.43;;;32.03;;
33206;SDS011;19565;46.602;11.534;2022-12-18T09:54:38;33.23;;;31.80;;
33206;SDS011;19565;46.602;11.534;2022-12-18T09:57:12;35.47;;;33.87;;
33206;SDS011;19565;46.602;11.534;2022-12-18T09:59:43;35.90;;;34.40;;
33206;SDS011;19565;46.602;11.534;2022-12-18T10:02:19;36.13;;;34.53;;
33206;SDS011;19565;46.602;11.534;2022-12-18T10:04:51;36.07;;;34.47;;
33206;SDS011;19565;46.602;11.534;2022-12-18T10:07:29;36.57;;;34.97;;
33206;SDS011;19565;46.602;11.534;2022-12-18T10:10:10;36.27;;;34.67;;
33206;SDS011;19565;46.602;11.534;2022-12-18T10:12:49;38.40;;;36.50;;
33206;SDS011;19565;46.602;11.534;2022-12-18T10:15:30;38.30;;;36.60;;
33206;SDS011;19565;46.602;11.534;2022-12-18T10:18:10;37.27;;;35.67;;
33206;SDS011;19565;46.602;11.534;2022-12-18T10:20:50;38.57;;;36.87;;
33206;SDS011;19565;46.602;11.534;2022-12-18T10:23:21;37.73;;;36.13;;
33206;SDS011;19565;46.602;11.534;2022-12-18T10:25:55;38.77;;;37.07;;
33206;SDS011;19565;46.602;11.534;2022-12-18T10:28:29;40.20;;;38.03;;
33206;SDS011;19565;46.602;11.534;2022-12-18T10:30:58;39.03;;;37.33;;
33206;SDS011;19565;46.602;11.534;2022-12-18T10:33:29;39.47;;;37.77;;
33206;SDS011;19565;46.602;11.534;2022-12-18T10:35:59;38.80;;;37.10;;
33206;SDS011;19565;46.602;11.534;2022-12-18T10:38:30;39.40;;;37.70;;
33206;SDS011;19565;46.602;11.534;2022-12-18T10:41:00;39.33;;;37.63;;
33206;SDS011;19565;46.602;11.534;2022-12-18T10:43:30;40.87;;;39.17;;
33206;SDS011;19565;46.602;11.534;2022-12-18T10:46:01;39.50;;;37.80;;
33206;SDS011;19565;46.602;11.534;2022-12-18T10:48:38;41.00;;;39.17;;
33206;SDS011;19565;46.602;11.534;2022-12-18T10:51:19;41.60;;;39.80;;
33206;SDS011;19565;46.602;11.534;2022-12-18T10:53:51;40.50;;;38.80;;
33206;SDS011;19565;46.602;11.534;2022-12-18T10:56:22;41.60;;;39.80;;
33206;SDS011;19565;46.602;11.534;2022-12-18T10:58:57;41.50;;;39.70;;
33206;SDS011;19565;46.602;11.534;2022-12-18T11:01:27;42.47;;;40.67;;
33206;SDS011;19565;46.602;11.534;2022-12-18T11:04:01;43.50;;;41.60;;
33206;SDS011;19565;46.602;11.534;2022-12-18T11:06:35;41.93;;;40.13;;
33206;SDS011;19565;46.602;11.534;2022-12-18T11:09:25;42.63;;;40.83;;
33206;SDS011;19565;46.602;11.534;2022-12-18T11:11:54;42.50;;;40.70;;
33206;SDS011;19565;46.602;11.534;2022-12-18T11:14:26;42.03;;;40.23;;
33206;SDS011;19565;46.602;11.534;2022-12-18T11:16:56;42.00;;;40.20;;
33206;SDS011;19565;46.602;11.534;2022-12-18T11:19:53;42.47;;;40.67;;
33206;SDS011;19565;46.602;11.534;2022-12-18T11:22:23;42.43;;;40.63;;
33206;SDS011;19565;46.602;11.534;2022-12-18T11:24:55;43.10;;;41.00;;
33206;SDS011;19565;46.602;11.534;2022-12-18T11:27:49;43.87;;;41.97;;
33206;SDS011;19565;46.602;11.534;2022-12-18T11:30:23;43.17;;;41.27;;
33206;SDS011;19565;46.602;11.534;2022-12-18T11:32:58;43.63;;;41.47;;
33206;SDS011;19565;46.602;11.534;2022-12-18T11:35:34;43.00;;;41.10;;
33206;SDS011;19565;46.602;11.534;2022-12-18T11:38:16;42.60;;;40.70;;
33206;SDS011;19565;46.602;11.534;2022-12-18T11:40:50;43.33;;;41.43;;
33206;SDS011;19565;46.602;11.534;2022-12-18T11:43:25;42.97;;;41.07;;
33206;SDS011;19565;46.602;11.534;2022-12-18T11:45:56;41.03;;;39.23;;
33206;SDS011;19565;46.602;11.534;2022-12-18T11:48:30;42.80;;;40.90;;
33206;SDS011;19565;46.602;11.534;2022-12-18T11:51:02;44.87;;;42.70;;
33206;SDS011;19565;46.602;11.534;2022-12-18T11:53:37;43.20;;;41.30;;
33206;SDS011;19565;46.602;11.534;2022-12-18T11:56:16;42.67;;;40.87;;
33206;SDS011;19565;46.602;11.534;2022-12-18T11:58:58;43.57;;;41.67;;
33206;SDS011;19565;46.602;11.534;2022-12-18T12:01:38;42.53;;;40.53;;
33206;SDS011;19565;46.602;11.534;2022-12-18T12:04:28;41.87;;;40.07;;
33206;SDS011;19565;46.602;11.534;2022-12-18T12:07:15;43.20;;;41.30;;
33206;SDS011;19565;46.602;11.534;2022-12-18T12:09:59;187.10;;;175.57;;
33206;SDS011;19565;46.602;11.534;2022-12-18T12:12:38;43.40;;;41.50;;
33206;SDS011;19565;46.602;11.534;2022-12-18T12:15:18;43.10;;;41.20;;
33206;SDS011;19565;46.602;11.534;2022-12-18T12:17:55;42.53;;;40.70;;
33206;SDS011;19565;46.602;11.534;2022-12-18T12:20:38;43.33;;;41.43;;
33206;SDS011;19565;46.602;11.534;2022-12-18T12:23:17;43.03;;;40.27;;
33206;SDS011;19565;46.602;11.534;2022-12-18T12:25:55;40.13;;;38.33;;
33206;SDS011;19565;46.602;11.534;2022-12-18T12:28:31;40.20;;;38.50;;
33206;SDS011;19565;46.602;11.534;2022-12-18T12:31:27;40.80;;;39.00;;
33206;SDS011;19565;46.602;11.534;2022-12-18T12:34:06;40.13;;;38.43;;
33206;SDS011;19565;46.602;11.534;2022-12-18T12:36:48;41.07;;;39.27;;
33206;SDS011;19565;46.602;11.534;2022-12-18T12:39:26;41.90;;;40.10;;
33206;SDS011;19565;46.602;11.534;2022-12-18T12:41:59;40.87;;;39.07;;
33206;SDS011;19565;46.602;11.534;2022-12-18T12:44:47;40.00;;;38.30;;
33206;SDS011;19565;46.602;11.534;2022-12-18T12:47:22;40.23;;;38.53;;
33206;SDS011;19565;46.602;11.534;2022-12-18T12:49:54;41.20;;;39.40;;
33206;SDS011;19565;46.602;11.534;2022-12-18T12:52:27;40.97;;;39.17;;
33206;SDS011;19565;46.602;11.534;2022-12-18T12:54:59;40.03;;;38.33;;
33206;SDS011;19565;46.602;11.534;2022-12-18T12:57:37;41.53;;;39.73;;
33206;SDS011;19565;46.602;11.534;2022-12-18T13:00:11;42.53;;;40.67;;
33206;SDS011;19565;46.602;11.534;2022-12-18T13:02:42;19.07;;;18.17;;
33206;SDS011;19565;46.602;11.534;2022-12-18T13:05:18;18.97;;;18.07;;
33206;SDS011;19565;46.602;11.534;2022-12-18T13:07:53;19.10;;;18.20;;
33206;SDS011;19565;46.602;11.534;2022-12-18T13:10:45;18.93;;;18.03;;
33206;SDS011;19565;46.602;11.534;2022-12-18T13:13:14;19.83;;;18.83;;
33206;SDS011;19565;46.602;11.534;2022-12-18T13:16:04;19.27;;;18.37;;
33206;SDS011;19565;46.602;11.534;2022-12-18T13:18:36;18.47;;;17.57;;
33206;SDS011;19565;46.602;11.534;2022-12-18T13:21:10;18.90;;;18.00;;
33206;SDS011;19565;46.602;11.534;2022-12-18T13:23:48;19.70;;;18.70;;
33206;SDS011;19565;46.602;11.534;2022-12-18T13:29:04;19.43;;;18.53;;
33206;SDS011;19565;46.602;11.534;2022-12-18T13:34:28;19.20;;;18.30;;
33206;SDS011;19565;46.602;11.534;2022-12-18T13:40:00;19.03;;;18.13;;
33206;SDS011;19565;46.602;11.534;2022-12-18T13:42:36;19.57;;;18.67;;
33206;SDS011;19565;46.602;11.534;2022-12-18T13:45:35;19.00;;;18.10;;
33206;SDS011;19565;46.602;11.534;2022-12-18T13:48:20;19.30;;;18.40;;
33206;SDS011;19565;46.602;11.534;2022-12-18T13:51:00;19.03;;;18.13;;
33206;SDS011;19565;46.602;11.534;2022-12-18T13:53:32;19.00;;;18.10;;
33206;SDS011;19565;46.602;11.534;2022-12-18T13:56:04;18.73;;;17.83;;
33206;SDS011;19565;46.602;11.534;2022-12-18T13:58:35;19.03;;;18.13;;
33206;SDS011;19565;46.602;11.534;2022-12-18T14:01:03;19.13;;;18.23;;
33206;SDS011;19565;46.602;11.534;2022-12-18T14:03:33;18.73;;;17.83;;
33206;SDS011;19565;46.602;11.534;2022-12-18T14:06:02;19.80;;;18.70;;
33206;SDS011;19565;46.602;11.534;2022-12-18T14:08:34;20.40;;;19.40;;
33206;SDS011;19565;46.602;11.534;2022-12-18T14:11:06;19.43;;;18.53;;
33206;SDS011;19565;46.602;11.534;2022-12-18T14:13:48;19.17;;;18.27;;
33206;SDS011;19565;46.602;11.534;2022-12-18T14:16:17;20.10;;;18.90;;
33206;SDS011;19565;46.602;11.534;2022-12-18T14:18:46;19.90;;;18.90;;
33206;SDS011;19565;46.602;11.534;2022-12-18T14:21:22;19.27;;;18.37;;
33206;SDS011;19565;46.602;11.534;2022-12-18T14:24:02;19.33;;;18.43;;
33206;SDS011;19565;46.602;11.534;2022-12-18T14:26:43;20.07;;;19.07;;
33206;SDS011;19565;46.602;11.534;2022-12-18T14:29:24;19.03;;;18.13;;
33206;SDS011;19565;46.602;11.534;2022-12-18T14:32:03;19.43;;;18.53;;
33206;SDS011;19565;46.602;11.534;2022-12-18T14:34:42;18.83;;;17.90;;
33206;SDS011;19565;46.602;11.534;2022-12-18T14:37:10;18.83;;;17.93;;
33206;SDS011;19565;46.602;11.534;2022-12-18T14:39:38;18.47;;;17.57;;
33206;SDS011;19565;46.602;11.534;2022-12-18T14:42:09;18.73;;;17.83;;
33206;SDS011;19565;46.602;11.534;2022-12-18T14:44:40;19.30;;;18.40;;
33206;SDS011;19565;46.602;11.534;2022-12-18T14:47:27;19.50;;;18.50;;
33206;SDS011;19565;46.602;11.534;2022-12-18T14:49:55;18.50;;;17.60;;